createdAt,value
2023-02-25T00:01:33.567Z,0.70
2023-02-25T00:04:04.073Z,0.40
2023-02-25T00:06:34.289Z,0.75
2023-02-25T00:09:07.307Z,0.75
2023-02-25T00:11:37.550Z,0.75
2023-02-25T00:14:07.855Z,0.65
2023-02-25T00:16:38.122Z,0.60
2023-02-25T00:19:08.397Z,0.75
2023-02-25T00:21:38.633Z,0.73
2023-02-25T00:24:16.780Z,0.47
2023-02-25T00:26:47.351Z,0.55
2023-02-25T00:29:18.554Z,0.77
2023-02-25T00:31:49.069Z,0.70
2023-02-25T00:34:20.046Z,1.02
2023-02-25T00:36:50.966Z,0.70
2023-02-25T00:39:24.821Z,0.50
2023-02-25T00:41:55.061Z,0.85
2023-02-25T00:44:25.310Z,0.80
2023-02-25T00:46:55.522Z,1.92
2023-02-25T00:49:32.568Z,0.50
2023-02-25T00:52:03.115Z,0.68
2023-02-25T00:54:36.622Z,0.98
2023-02-25T00:57:06.931Z,0.50
2023-02-25T00:59:37.275Z,0.52
2023-02-25T01:02:07.699Z,0.43
2023-02-25T01:04:37.967Z,0.60
2023-02-25T01:07:08.214Z,0.45
2023-02-25T01:09:41.147Z,0.77
2023-02-25T01:12:11.406Z,1.30
2023-02-25T01:14:41.703Z,0.57
2023-02-25T01:17:11.946Z,0.90
2023-02-25T01:19:42.872Z,0.85
2023-02-25T01:22:13.091Z,0.77
2023-02-25T01:24:45.963Z,0.65
2023-02-25T01:27:16.209Z,1.85
2023-02-25T01:29:46.501Z,1.08
2023-02-25T01:32:18.120Z,1.15
2023-02-25T01:34:48.468Z,0.57
2023-02-25T01:37:18.690Z,0.50
2023-02-25T01:39:51.543Z,0.85
2023-02-25T01:42:21.775Z,0.60
2023-02-25T01:45:07.099Z,0.45
2023-02-25T01:47:39.511Z,0.68
2023-02-25T01:50:10.401Z,0.30
2023-02-25T01:52:41.282Z,0.47
2023-02-25T01:55:14.707Z,0.60
2023-02-25T01:57:44.983Z,0.50
2023-02-25T02:00:16.883Z,0.60
2023-02-25T02:02:47.488Z,0.40
2023-02-25T02:05:18.455Z,0.68
2023-02-25T02:07:48.704Z,1.00
2023-02-25T02:10:21.927Z,0.40
2023-02-25T02:12:52.362Z,0.50
2023-02-25T02:15:22.636Z,0.60
2023-02-25T02:17:55.741Z,1.17
2023-02-25T02:20:28.050Z,0.40
2023-02-25T02:23:14.831Z,0.82
2023-02-25T02:26:05.788Z,0.80
2023-02-25T02:28:45.407Z,0.40
2023-02-25T02:31:23.651Z,0.40
2023-02-25T02:33:57.840Z,0.57
2023-02-25T02:36:30.803Z,0.40
2023-02-25T02:39:06.479Z,1.65
2023-02-25T02:41:38.501Z,0.57
2023-02-25T02:44:10.513Z,0.47
2023-02-25T02:46:45.763Z,0.50
2023-02-25T02:49:19.248Z,0.88
2023-02-25T02:51:51.903Z,0.60
2023-02-25T02:54:22.314Z,0.50
2023-02-25T02:56:54.389Z,0.50
2023-02-25T02:59:28.334Z,1.42
2023-02-25T03:02:03.874Z,0.70
2023-02-25T03:04:37.190Z,0.52
2023-02-25T03:07:10.727Z,0.32
2023-02-25T03:09:43.334Z,0.60
2023-02-25T03:12:13.588Z,0.93
2023-02-25T03:14:43.920Z,0.50
2023-02-25T03:17:19.225Z,1.02
2023-02-25T03:19:51.679Z,0.50
2023-02-25T03:22:23.491Z,2.20
2023-02-25T03:24:56.968Z,0.50
2023-02-25T03:27:28.673Z,1.08
2023-02-25T03:30:01.120Z,0.50
2023-02-25T03:32:37.025Z,0.70
2023-02-25T03:35:09.975Z,0.60
2023-02-25T03:37:41.545Z,0.60
2023-02-25T03:42:46.825Z,0.43
2023-02-25T03:45:17.517Z,2.05
2023-02-25T03:47:50.655Z,0.57
2023-02-25T03:50:24.206Z,1.35
2023-02-25T03:52:54.527Z,0.50
2023-02-25T03:55:24.911Z,0.68
2023-02-25T03:57:55.703Z,0.63
2023-02-25T04:00:27.886Z,0.60
2023-02-25T04:03:01.221Z,0.45
2023-02-25T04:05:31.477Z,1.52
2023-02-25T04:08:02.597Z,0.80
2023-02-25T04:10:33.536Z,0.52
2023-02-25T04:13:04.104Z,0.88
2023-02-25T04:15:34.373Z,1.10
2023-02-25T04:18:07.576Z,0.63
2023-02-25T04:20:39.118Z,2.42
2023-02-25T04:23:09.406Z,0.70
2023-02-25T04:25:39.713Z,0.50
2023-02-25T04:28:10.416Z,0.60
2023-02-25T04:30:41.116Z,0.60
2023-02-25T04:33:14.476Z,0.70
2023-02-25T04:35:44.679Z,0.47
2023-02-25T04:38:14.924Z,1.20
2023-02-25T04:40:45.346Z,0.65
2023-02-25T04:43:15.788Z,0.60
2023-02-25T04:45:46.850Z,0.85
2023-02-25T04:48:24.414Z,1.77
2023-02-25T04:50:54.680Z,0.30
2023-02-25T04:53:25.016Z,0.50
2023-02-25T04:55:55.224Z,0.45
2023-02-25T04:58:25.444Z,0.43
2023-02-25T05:00:57.824Z,1.80
2023-02-25T05:03:30.728Z,0.68
2023-02-25T05:06:01.057Z,1.30
2023-02-25T05:08:32.026Z,0.40
2023-02-25T05:11:02.273Z,0.60
2023-02-25T05:13:33.136Z,0.52
2023-02-25T05:16:07.269Z,0.60
2023-02-25T05:18:42.066Z,0.73
2023-02-25T05:21:12.831Z,0.60
2023-02-25T05:23:43.328Z,0.50
2023-02-25T05:26:13.964Z,0.50
2023-02-25T05:28:44.397Z,1.13
2023-02-25T05:31:16.114Z,0.40
2023-02-25T05:33:49.259Z,0.40
2023-02-25T05:36:19.886Z,0.70
2023-02-25T05:38:50.616Z,0.85
2023-02-25T05:41:20.879Z,0.77
2023-02-25T05:43:51.111Z,0.70
2023-02-25T05:46:22.571Z,0.60
2023-02-25T05:48:55.662Z,0.55
2023-02-25T05:51:26.366Z,0.93
2023-02-25T05:53:57.487Z,0.60
2023-02-25T05:56:31.617Z,0.43
2023-02-25T05:59:02.488Z,0.95
2023-02-25T06:01:32.690Z,0.77
2023-02-25T06:04:05.561Z,0.63
2023-02-25T06:06:35.779Z,0.55
2023-02-25T06:09:06.135Z,0.90
2023-02-25T06:11:36.364Z,0.60
2023-02-25T06:14:06.912Z,0.60
2023-02-25T06:16:37.119Z,0.50
2023-02-25T06:19:10.229Z,0.55
2023-02-25T06:21:40.602Z,0.40
2023-02-25T06:24:11.105Z,1.05
2023-02-25T06:26:42.820Z,1.40
2023-02-25T06:29:13.575Z,0.60
2023-02-25T06:31:44.006Z,0.60
2023-02-25T06:34:16.975Z,0.63
2023-02-25T06:36:47.198Z,0.63
2023-02-25T06:39:17.418Z,0.50
2023-02-25T06:41:49.540Z,0.80
2023-02-25T06:44:19.787Z,0.77
2023-02-25T06:46:50.188Z,0.90
2023-02-25T06:49:23.264Z,0.50
2023-02-25T06:51:53.644Z,0.52
2023-02-25T06:54:24.489Z,0.77
2023-02-25T06:56:55.851Z,0.50
2023-02-25T07:01:56.071Z,0.73
2023-02-25T07:04:28.983Z,0.65
2023-02-25T07:06:59.261Z,1.10
2023-02-25T07:09:29.496Z,0.80
2023-02-25T07:11:59.769Z,1.00
2023-02-25T07:14:30.043Z,0.40
2023-02-25T07:17:00.257Z,0.80
2023-02-25T07:19:33.113Z,0.60
2023-02-25T07:22:03.394Z,0.70
2023-02-25T07:24:34.942Z,1.08
2023-02-25T07:29:35.119Z,0.70
2023-02-25T07:32:05.491Z,0.57
2023-02-25T07:34:39.257Z,0.82
2023-02-25T07:37:09.497Z,0.77
2023-02-25T07:39:39.759Z,0.55
2023-02-25T07:42:09.933Z,0.75
2023-02-25T07:44:40.165Z,0.63
2023-02-25T07:47:10.937Z,0.60
2023-02-25T07:49:44.026Z,0.70
2023-02-25T07:52:14.252Z,0.70
2023-02-25T07:54:44.759Z,0.70
2023-02-25T07:57:15.058Z,0.75
2023-02-25T07:59:45.329Z,0.70
2023-02-25T08:02:15.856Z,0.70
2023-02-25T08:04:48.859Z,0.80
2023-02-25T08:07:20.517Z,0.40
2023-02-25T08:09:50.763Z,2.47
2023-02-25T08:12:21.157Z,0.40
2023-02-25T08:14:51.426Z,0.55
2023-02-25T08:17:21.685Z,0.70
2023-02-25T08:19:55.863Z,0.60
2023-02-25T08:22:26.134Z,0.73
2023-02-25T08:24:56.407Z,0.30
2023-02-25T08:27:26.623Z,0.82
2023-02-25T08:29:57.137Z,0.73
2023-02-25T08:32:27.857Z,0.70
2023-02-25T08:35:01.012Z,0.60
2023-02-25T08:37:31.312Z,0.70
2023-02-25T08:40:01.558Z,0.40
2023-02-25T08:42:31.759Z,0.70
2023-02-25T08:45:02.066Z,0.60
2023-02-25T08:47:32.273Z,0.60
2023-02-25T08:50:05.556Z,0.68
2023-02-25T08:52:36.411Z,0.65
2023-02-25T08:55:07.559Z,0.55
2023-02-25T08:57:37.813Z,0.70
2023-02-25T09:00:10.051Z,0.85
2023-02-25T09:02:41.553Z,0.60
2023-02-25T09:05:14.565Z,2.08
2023-02-25T09:07:44.945Z,0.82
2023-02-25T09:10:17.217Z,0.77
2023-02-25T09:12:48.971Z,0.85
2023-02-25T09:15:19.329Z,1.25
2023-02-25T09:17:53.192Z,1.15
2023-02-25T09:20:26.150Z,0.95
2023-02-25T09:22:57.432Z,1.15
2023-02-25T09:25:29.391Z,0.77
2023-02-25T09:27:59.684Z,0.60
2023-02-25T09:30:29.943Z,1.05
2023-02-25T09:33:00.355Z,1.15
2023-02-25T09:35:33.841Z,0.75
2023-02-25T09:38:04.045Z,0.75
2023-02-25T09:40:34.407Z,0.65
2023-02-25T09:53:16.253Z,0.70
2023-02-25T09:55:48.450Z,0.80
2023-02-25T09:58:22.847Z,3.30
2023-02-25T10:00:56.246Z,0.90
2023-02-25T10:03:29.672Z,0.60
2023-02-25T10:06:03.082Z,1.10
2023-02-25T10:08:37.837Z,0.60
2023-02-25T10:11:12.830Z,0.52
2023-02-25T10:13:48.836Z,0.47
2023-02-25T10:16:28.831Z,0.90
2023-02-25T10:19:03.861Z,1.13
2023-02-25T10:21:42.955Z,0.98
2023-02-25T10:24:22.005Z,1.58
2023-02-25T10:26:53.728Z,0.98
2023-02-25T10:29:28.371Z,1.65
2023-02-25T10:31:59.811Z,0.98
2023-02-25T10:34:33.265Z,0.70
2023-02-25T10:37:04.159Z,0.52
2023-02-25T10:39:37.571Z,2.30
2023-02-25T10:42:08.371Z,0.82
2023-02-25T10:44:38.743Z,0.90
2023-02-25T10:47:11.328Z,1.05
2023-02-25T10:49:41.616Z,1.35
2023-02-25T10:52:18.295Z,2.70
2023-02-25T10:54:52.246Z,1.25
2023-02-25T10:57:27.362Z,1.00
2023-02-25T11:00:03.568Z,0.75
2023-02-25T11:02:35.358Z,0.88
2023-02-25T11:05:05.691Z,0.82
2023-02-25T11:07:37.193Z,0.57
2023-02-25T11:10:17.717Z,0.90
2023-02-25T11:12:49.158Z,0.90
2023-02-25T11:15:43.638Z,0.85
2023-02-25T11:18:21.395Z,2.20
2023-02-25T11:20:52.457Z,1.02
2023-02-25T11:23:27.126Z,1.05
2023-02-25T11:26:01.665Z,0.88
2023-02-25T11:28:33.856Z,0.93
2023-02-25T11:31:15.927Z,1.00
2023-02-25T11:33:48.512Z,0.65
2023-02-25T11:36:24.161Z,0.77
2023-02-25T11:39:07.206Z,0.77
2023-02-25T11:41:40.072Z,1.30
2023-02-25T11:44:26.859Z,0.90
2023-02-25T11:47:08.504Z,1.45
2023-02-25T11:49:47.993Z,0.95
2023-02-25T11:52:22.895Z,1.52
2023-02-25T11:54:58.885Z,0.63
2023-02-25T11:57:36.202Z,1.05
2023-02-25T12:00:14.876Z,1.45
2023-02-25T12:02:51.557Z,0.60
2023-02-25T12:05:45.023Z,0.50
2023-02-25T12:08:26.603Z,0.85
2023-02-25T12:11:11.687Z,0.45
2023-02-25T12:13:53.319Z,0.65
2023-02-25T12:16:38.561Z,0.65
2023-02-25T12:19:36.742Z,0.30
2023-02-25T12:22:17.849Z,0.40
2023-02-25T12:25:04.019Z,0.43
2023-02-25T12:27:52.543Z,0.30
2023-02-25T12:30:37.633Z,0.57
2023-02-25T12:33:14.818Z,2.08
2023-02-25T12:35:56.982Z,0.77
2023-02-25T12:38:39.873Z,0.40
2023-02-25T12:41:17.958Z,1.05
2023-02-25T12:43:52.523Z,0.77
2023-02-25T12:46:42.514Z,0.60
2023-02-25T12:49:29.835Z,0.63
2023-02-25T12:52:17.305Z,0.63
2023-02-25T12:55:01.442Z,0.95
2023-02-25T12:57:39.190Z,0.75
2023-02-25T13:00:26.701Z,0.70
2023-02-25T13:03:03.868Z,0.70
2023-02-25T13:05:48.917Z,1.50
2023-02-25T13:08:36.696Z,0.50
2023-02-25T13:11:10.697Z,0.80
2023-02-25T13:13:53.515Z,0.40
2023-02-25T13:16:30.991Z,0.60
2023-02-25T13:19:10.843Z,0.70
2023-02-25T13:21:48.959Z,0.70
2023-02-25T13:24:23.565Z,0.40
2023-02-25T13:27:02.968Z,0.60
2023-02-25T13:29:42.768Z,2.72
2023-02-25T13:32:21.684Z,0.40
2023-02-25T13:35:03.242Z,0.45
2023-02-25T13:37:41.256Z,0.65
2023-02-25T13:40:26.888Z,0.63
2023-02-25T13:43:01.997Z,0.63
2023-02-25T13:45:42.244Z,0.43
2023-02-25T13:48:27.324Z,0.60
2023-02-25T13:51:11.652Z,0.50
2023-02-25T13:56:27.060Z,0.93
2023-02-25T13:59:01.803Z,0.60
2023-02-25T14:01:35.332Z,0.77
2023-02-25T14:04:24.849Z,0.60
2023-02-25T14:07:15.678Z,0.85
2023-02-25T14:12:25.170Z,0.40
2023-02-25T14:15:10.946Z,0.60
2023-02-25T14:17:50.194Z,1.83
2023-02-25T14:20:32.393Z,0.50
2023-02-25T14:23:04.355Z,1.10
2023-02-25T14:25:41.822Z,0.80
2023-02-25T14:28:17.600Z,0.40
2023-02-25T14:30:56.492Z,0.70
2023-02-25T14:33:45.278Z,2.53
2023-02-25T14:36:23.794Z,0.77
2023-02-25T14:39:04.432Z,0.82
2023-02-25T14:41:39.833Z,0.82
2023-02-25T14:44:15.424Z,0.70
2023-02-25T14:46:48.160Z,1.05
2023-02-25T14:49:20.709Z,0.68
2023-02-25T14:52:20.780Z,0.82
2023-02-25T14:55:13.352Z,0.40
2023-02-25T14:58:00.885Z,0.45
2023-02-25T15:00:46.037Z,0.60
2023-02-25T15:03:31.058Z,1.25
2023-02-25T15:06:09.602Z,0.70
2023-02-25T15:09:00.692Z,1.60
2023-02-25T15:11:42.736Z,0.50
2023-02-25T15:14:33.132Z,0.88
2023-02-25T15:17:15.096Z,0.40
2023-02-25T15:20:00.343Z,0.75
2023-02-25T15:22:31.011Z,0.90
2023-02-25T15:25:16.026Z,2.28
2023-02-25T15:27:49.190Z,0.30
2023-02-25T15:30:21.039Z,0.60
2023-02-25T15:32:58.649Z,0.60
2023-02-25T15:35:51.041Z,0.73
2023-02-25T15:38:22.714Z,0.70
2023-02-25T15:40:55.562Z,0.95
2023-02-25T15:43:40.789Z,0.40
2023-02-25T15:46:34.878Z,0.60
2023-02-25T15:49:17.597Z,0.80
2023-02-25T15:51:49.122Z,1.27
2023-02-25T15:54:34.124Z,0.68
2023-02-25T15:57:05.102Z,1.08
2023-02-25T15:59:45.794Z,0.50
2023-02-25T16:02:33.470Z,0.32
2023-02-25T16:05:08.315Z,1.83
2023-02-25T16:07:40.769Z,0.43
2023-02-25T16:10:13.329Z,0.52
2023-02-25T16:12:45.423Z,0.45
2023-02-25T16:15:17.302Z,0.80
2023-02-25T16:17:47.750Z,2.67
2023-02-25T16:20:23.014Z,0.50
2023-02-25T16:22:55.941Z,0.63
2023-02-25T16:25:29.686Z,0.47
2023-02-25T16:28:04.916Z,0.63
2023-02-25T16:30:41.606Z,0.45
2023-02-25T16:33:18.127Z,0.43
2023-02-25T16:36:02.617Z,1.00
2023-02-25T16:38:42.002Z,1.17
2023-02-25T16:41:12.492Z,0.45
2023-02-25T16:43:44.660Z,0.60
2023-02-25T16:46:17.294Z,0.93
2023-02-25T16:48:51.622Z,0.40
2023-02-25T16:51:27.864Z,0.70
2023-02-25T16:53:58.991Z,0.70
2023-02-25T16:56:32.000Z,1.13
2023-02-25T16:59:03.488Z,0.77
2023-02-25T17:01:34.216Z,0.65
2023-02-25T17:04:05.876Z,0.90
2023-02-25T17:06:38.762Z,0.70
2023-02-25T17:09:09.005Z,0.40
2023-02-25T17:11:39.248Z,0.70
2023-02-25T17:14:09.552Z,4.00
2023-02-25T17:16:41.894Z,0.70
2023-02-25T17:19:13.587Z,0.88
2023-02-25T17:21:47.458Z,0.45
2023-02-25T17:24:18.955Z,1.20
2023-02-25T17:26:51.747Z,1.23
2023-02-25T17:29:22.094Z,0.93
2023-02-25T17:31:53.855Z,0.43
2023-02-25T17:34:28.870Z,2.28
2023-02-25T17:37:02.914Z,0.93
2023-02-25T17:39:33.335Z,0.85
2023-02-25T17:42:03.645Z,0.73
2023-02-25T17:44:51.481Z,1.00
2023-02-25T17:47:23.281Z,0.75
2023-02-25T17:49:53.981Z,0.85
2023-02-25T17:52:28.079Z,0.80
2023-02-25T17:55:00.961Z,0.63
2023-02-25T17:57:32.375Z,1.15
2023-02-25T18:00:04.778Z,0.70
2023-02-25T18:02:36.879Z,1.10
2023-02-25T18:05:22.895Z,0.43
2023-02-25T18:08:06.514Z,0.50
2023-02-25T18:11:00.937Z,1.23
2023-02-25T18:13:35.395Z,0.90
2023-02-25T18:16:26.601Z,0.75
2023-02-25T18:18:57.813Z,1.20
2023-02-25T18:21:28.390Z,0.85
2023-02-25T18:24:02.689Z,0.90
2023-02-25T18:26:32.917Z,2.67
2023-02-25T18:29:03.193Z,1.10
2023-02-25T18:31:34.863Z,1.23
2023-02-25T18:34:05.201Z,1.02
2023-02-25T18:36:35.395Z,0.90
2023-02-25T18:39:08.304Z,1.00
2023-02-25T18:41:39.092Z,1.25
2023-02-25T18:44:13.000Z,2.78
2023-02-25T18:46:43.282Z,1.05
2023-02-25T18:49:13.634Z,0.65
2023-02-25T18:51:43.872Z,0.98
2023-02-25T18:54:19.993Z,1.33
2023-02-25T18:56:50.182Z,1.38
2023-02-25T18:59:20.431Z,1.25
2023-02-25T19:01:50.835Z,1.30
2023-02-25T19:04:21.501Z,1.00
2023-02-25T19:06:51.750Z,0.85
2023-02-25T19:09:25.112Z,0.77
2023-02-25T19:11:55.393Z,1.08
2023-02-25T19:14:25.732Z,0.98
2023-02-25T19:16:57.341Z,1.30
2023-02-25T19:19:28.195Z,1.25
2023-02-25T19:21:58.446Z,1.80
2023-02-25T19:24:31.449Z,1.35
2023-02-25T19:27:02.758Z,1.00
2023-02-25T19:29:33.029Z,1.63
2023-02-25T19:32:03.366Z,1.30
2023-02-25T19:34:33.892Z,2.65
2023-02-25T19:37:04.222Z,2.92
2023-02-25T19:39:37.144Z,1.20
2023-02-25T19:42:08.791Z,1.88
2023-02-25T19:44:39.461Z,2.80
2023-02-25T19:47:10.449Z,1.77
2023-02-25T19:49:40.692Z,1.88
2023-02-25T19:52:10.935Z,1.80
2023-02-25T19:54:43.881Z,1.75
2023-02-25T19:57:14.321Z,1.90
2023-02-25T19:59:45.035Z,1.30
2023-02-25T20:02:16.369Z,1.17
2023-02-25T20:04:46.674Z,1.27
2023-02-25T20:07:16.907Z,1.40
2023-02-25T20:09:49.782Z,1.50
2023-02-25T20:12:20.240Z,1.25
2023-02-25T20:14:50.485Z,1.52
2023-02-25T20:17:20.725Z,1.67
2023-02-25T20:19:50.978Z,1.75
2023-02-25T20:22:23.933Z,1.98
2023-02-25T20:24:57.249Z,1.80
2023-02-25T20:27:27.761Z,2.00
2023-02-25T20:29:58.054Z,1.73
2023-02-25T20:32:30.064Z,2.40
2023-02-25T20:35:00.934Z,4.07
2023-02-25T20:37:33.804Z,5.60
2023-02-25T20:40:12.192Z,4.30
2023-02-25T20:42:42.557Z,4.20
2023-02-25T20:45:17.656Z,3.97
2023-02-25T20:47:48.100Z,3.55
2023-02-25T20:50:19.276Z,4.10
2023-02-25T20:52:49.557Z,3.15
2023-02-25T20:55:22.533Z,3.28
2023-02-25T20:57:52.764Z,3.67
2023-02-25T21:00:23.401Z,2.55
2023-02-25T21:02:53.657Z,1.67
2023-02-25T21:05:23.925Z,2.38
2023-02-25T21:07:54.154Z,2.83
2023-02-25T21:10:27.094Z,2.55
2023-02-25T21:12:57.315Z,3.00
2023-02-25T21:15:27.632Z,2.60
2023-02-25T21:17:57.893Z,3.20
2023-02-25T21:20:28.155Z,2.63
2023-02-25T21:22:58.398Z,2.28
2023-02-25T21:25:31.477Z,2.53
2023-02-25T21:28:02.015Z,2.92
2023-02-25T21:30:32.451Z,2.88
2023-02-25T21:33:02.664Z,1.98
2023-02-25T21:35:33.011Z,4.20
2023-02-25T21:38:03.262Z,3.15
2023-02-25T21:40:36.303Z,2.70
2023-02-25T21:43:07.046Z,2.63
2023-02-25T21:45:38.095Z,2.80
2023-02-25T21:48:08.817Z,2.60
2023-02-25T21:50:39.386Z,2.88
2023-02-25T21:53:09.694Z,2.58
2023-02-25T21:55:43.291Z,2.80
2023-02-25T21:58:13.643Z,3.03
2023-02-25T22:00:44.242Z,3.25
2023-02-25T22:03:14.668Z,2.75
2023-02-25T22:05:47.382Z,3.03
2023-02-25T22:08:17.882Z,2.10
2023-02-25T22:10:50.801Z,2.63
2023-02-25T22:13:21.032Z,2.42
2023-02-25T22:15:51.390Z,2.85
2023-02-25T22:18:21.659Z,2.70
2023-02-25T22:20:51.921Z,2.92
2023-02-25T22:23:22.162Z,2.15
2023-02-25T22:25:55.009Z,4.55
2023-02-25T22:28:25.266Z,2.78
2023-02-25T22:30:55.602Z,3.97
2023-02-25T22:33:25.900Z,3.97
2023-02-25T22:36:00.304Z,2.83
2023-02-25T22:38:31.261Z,3.08
2023-02-25T22:41:04.556Z,3.38
2023-02-25T22:43:35.250Z,3.15
2023-02-25T22:46:09.057Z,3.92
2023-02-25T22:48:39.886Z,2.55
2023-02-25T22:51:11.123Z,4.05
2023-02-25T22:53:41.662Z,2.97
2023-02-25T22:56:15.277Z,3.33
2023-02-25T22:58:45.594Z,2.17
2023-02-25T23:01:16.777Z,2.00
2023-02-25T23:03:47.030Z,1.90
2023-02-25T23:06:18.536Z,1.77
2023-02-25T23:11:22.016Z,1.45
2023-02-25T23:13:53.159Z,1.98
2023-02-25T23:16:24.867Z,1.38
2023-02-25T23:18:55.652Z,3.15
2023-02-25T23:21:26.040Z,1.50
2023-02-25T23:23:58.702Z,1.20
2023-02-25T23:26:33.676Z,1.17
2023-02-25T23:29:05.590Z,1.83
2023-02-25T23:31:37.430Z,1.40
2023-02-25T23:34:09.512Z,1.02
2023-02-25T23:36:39.862Z,1.42
2023-02-25T23:39:10.617Z,1.10
2023-02-25T23:41:43.514Z,2.05
2023-02-25T23:44:14.018Z,1.75
2023-02-25T23:46:45.725Z,1.13
2023-02-25T23:49:17.214Z,1.60
2023-02-25T23:51:48.995Z,1.25
2023-02-25T23:54:20.821Z,0.90
2023-02-25T23:56:54.024Z,1.38
2023-02-25T23:59:26.119Z,1.63
